Huvudsida
METAR-TAF:

METAR-TAF

Flygplatser :

Farnborough Airport

Farnborough, England

latitud: 51-17N, longitud: 000-46W, höjd: 65 m

Aktuellt väderrapport

Denna rapport gjordes för 26 minuter sedan, klockan 15:20 UTC
Vind 17 kt från nord/nordost, varierande mellan nord och ost/nordost
Temperatur 6°C
Fuktighet 49%
Tryck 1037 hPa
Sikt 10 km eller mer

METAR: EGLF 291520Z AUTO 02017KT 350V060 9999 SCT049/// 06/M04 Q1037

Tid: 16:46 (15:46 UTC)

Väderprognos

Denna rapport gjordes för 1 timme och 50 minuter sedan, klockan 13:56 UTC
Prognos gäller från 29 kl. 15 UTC till 29 kl. 19 UTC
Vind 18 kt från nord/nordost i byarna ända upp till 32 kt
Sikt 10 km eller mer
Spridda moln på en höjd av 3000 ft

TAF: EGLF 291356Z 2915/2919 02018G32KT 9999 SCT030

Aktuella väderrapporter och prognoser från 4000 flygplatser (METAR- och TAF-rapporter).

De tillgängliga stationerna syns som gula och röda prickar på kartan.

För musen över prickarna för att se namnen på stationerna.

Klicka sedan för att få väderrapporter och prognoser.

För att ändra kartan: Klicka på de gröna knapparna med ett svart kors på för att zooma in; den gröna knappen med ett streck på för att zooma ut; eller på de gröna pilarna för angränsande kartor.


METAR-TAF: